TimeMST,TemperatureF,Dew PointF,Humidity,Sea Level PressureIn,VisibilityMPH,Wind Direction,Wind SpeedMPH,Gust SpeedMPH,PrecipitationIn,Events,Conditions,WindDirDegrees,DateUTC
12:02 AM,28.4,28.4,100,29.62,1.0,North,6.9,-,0.01,Snow,Light Snow,350,2012-11-10 07:02:00
12:09 AM,28.4,28.4,100,29.61,3.0,North,9.2,-,0.01,Snow,Light Snow,350,2012-11-10 07:09:00
12:16 AM,28.4,28.4,100,29.61,7.0,NNW,12.7,-,0.01,Snow,Light Snow,340,2012-11-10 07:16:00
12:37 AM,28.4,28.4,100,29.61,3.0,NNW,9.2,-,0.02,Snow,Light Snow,330,2012-11-10 07:37:00
12:42 AM,28.4,28.4,100,29.60,1.8,NNW,10.4,-,0.02,Snow,Light Snow,340,2012-11-10 07:42:00
12:53 AM,28.9,28.0,96,29.65,1.0,NNW,11.5,-,0.03,Snow,Light Snow,330,2012-11-10 07:53:00
1:05 AM,28.4,28.4,100,29.62,0.8,NW,12.7,-,0.01,Snow,Light Snow,310,2012-11-10 08:05:00
1:14 AM,28.4,28.4,100,29.63,0.5,NW,10.4,-,0.03,Fog-Snow,Snow,320,2012-11-10 08:14:00
1:18 AM,28.4,28.4,100,29.63,1.0,NW,9.2,-,0.04,Snow,Light Snow,320,2012-11-10 08:18:00
1:25 AM,28.4,28.4,100,29.63,2.0,NW,8.1,-,0.04,Snow,Light Snow,320,2012-11-10 08:25:00
1:40 AM,28.4,26.6,93,29.63,3.0,NW,10.4,-,0.04,Snow,Light Snow,320,2012-11-10 08:40:00
1:53 AM,28.0,27.0,96,29.68,3.0,NW,13.8,20.7,0.04,Snow,Light Snow,320,2012-11-10 08:53:00
1:58 AM,28.4,26.6,93,29.62,2.5,NW,16.1,-,0.00,Snow,Light Snow,320,2012-11-10 08:58:00
2:12 AM,26.6,26.6,100,29.64,1.5,NW,15.0,-,0.00,Snow,Light Snow,320,2012-11-10 09:12:00
2:26 AM,26.6,26.6,100,29.63,2.5,NW,13.8,-,0.01,Snow,Light Snow,320,2012-11-10 09:26:00
2:35 AM,26.6,26.6,100,29.61,3.0,NNW,10.4,-,0.01,Snow,Light Snow,330,2012-11-10 09:35:00
2:53 AM,26.1,25.0,96,29.69,7.0,NW,15.0,-,0.01,,Overcast,310,2012-11-10 09:53:00
3:53 AM,24.1,23.0,96,29.70,10.0,NW,20.7,-,N/A,,Overcast,320,2012-11-10 10:53:00
4:53 AM,23.0,21.9,96,29.72,10.0,NNW,19.6,-,N/A,,Overcast,330,2012-11-10 11:53:00
5:53 AM,21.9,21.0,96,29.74,4.0,NNW,17.3,-,N/A,,Overcast,340,2012-11-10 12:53:00
6:51 AM,21.2,19.4,93,29.67,2.5,NW,16.1,-,N/A,,Overcast,320,2012-11-10 13:51:00
6:53 AM,21.0,19.9,96,29.76,2.5,NNW,17.3,-,N/A,,Overcast,330,2012-11-10 13:53:00
7:18 AM,19.4,19.4,100,29.69,1.5,NW,17.3,-,N/A,,Overcast,310,2012-11-10 14:18:00
7:36 AM,19.4,17.6,93,29.70,2.0,NW,18.4,-,N/A,,Overcast,310,2012-11-10 14:36:00
7:53 AM,19.9,19.0,96,29.82,1.8,NW,19.6,25.3,N/A,,Overcast,310,2012-11-10 14:53:00
8:10 AM,19.4,17.6,93,29.70,2.0,NW,18.4,24.2,N/A,,Overcast,320,2012-11-10 15:10:00
8:37 AM,19.4,17.6,93,29.71,3.0,NW,20.7,27.6,N/A,,Overcast,320,2012-11-10 15:37:00
8:53 AM,18.0,17.1,96,29.83,4.0,NW,19.6,-,N/A,,Overcast,320,2012-11-10 15:53:00
9:53 AM,18.0,16.0,92,29.82,3.0,NNW,24.2,32.2,N/A,,Overcast,330,2012-11-10 16:53:00
10:25 AM,17.6,15.8,93,29.72,6.0,NNW,19.6,26.5,N/A,,Overcast,330,2012-11-10 17:25:00
10:53 AM,17.1,15.1,92,29.83,2.0,NNW,19.6,-,0.00,Snow,Light Snow,340,2012-11-10 17:53:00
11:13 AM,17.6,14.0,86,29.73,4.0,NNW,19.6,-,0.00,Snow,Light Snow,330,2012-11-10 18:13:00
11:26 AM,17.6,14.0,86,29.73,2.0,NNW,16.1,25.3,0.00,Snow,Light Snow,330,2012-11-10 18:26:00
11:35 AM,15.8,14.0,93,29.73,1.0,NNW,18.4,-,0.00,Snow,Light Snow,330,2012-11-10 18:35:00
11:43 AM,15.8,14.0,93,29.74,0.8,NNW,20.7,-,0.00,Snow,Light Snow,330,2012-11-10 18:43:00
11:53 AM,16.0,12.9,88,29.86,1.0,NNW,18.4,-,0.00,Snow,Light Snow,340,2012-11-10 18:53:00
12:17 PM,15.8,14.0,93,29.73,1.8,NNW,19.6,-,0.00,Snow,Light Snow,330,2012-11-10 19:17:00
12:27 PM,15.8,12.2,86,29.73,2.0,NNW,21.9,-,0.00,Snow,Light Snow,330,2012-11-10 19:27:00
12:38 PM,15.8,12.2,86,29.73,1.8,NNW,18.4,-,0.00,Snow,Light Snow,340,2012-11-10 19:38:00
12:51 PM,15.8,12.2,86,29.73,2.5,NNW,17.3,-,0.00,Snow,Light Snow,340,2012-11-10 19:51:00
12:53 PM,17.1,12.9,84,29.86,2.5,NNW,17.3,26.5,0.00,Snow,Light Snow,340,2012-11-10 19:53:00
1:53 PM,16.0,12.9,88,29.88,1.5,NNW,19.6,24.2,0.00,Snow,Light Snow,340,2012-11-10 20:53:00
2:21 PM,15.8,12.2,86,29.76,2.0,NNW,20.7,29.9,0.00,Snow,Light Snow,330,2012-11-10 21:21:00
2:45 PM,15.8,12.2,86,29.76,3.0,NNW,18.4,-,0.00,Snow,Light Snow,330,2012-11-10 21:45:00
2:53 PM,16.0,12.0,84,29.90,3.0,NNW,19.6,-,0.00,Snow,Light Snow,340,2012-11-10 21:53:00
3:13 PM,15.8,12.2,86,29.78,2.5,NNW,16.1,-,0.00,Snow,Light Snow,330,2012-11-10 22:13:00
3:31 PM,15.8,12.2,86,29.79,1.8,NNW,16.1,-,0.00,Snow,Light Snow,340,2012-11-10 22:31:00
3:40 PM,15.8,12.2,86,29.79,2.0,NNW,13.8,-,0.00,Snow,Light Snow,340,2012-11-10 22:40:00
3:51 PM,15.8,12.2,86,29.80,2.5,NW,16.1,-,0.00,Snow,Light Snow,320,2012-11-10 22:51:00
3:53 PM,15.1,12.0,88,29.95,3.0,NW,15.0,-,0.00,Snow,Light Snow,320,2012-11-10 22:53:00
4:23 PM,15.8,10.4,79,29.82,9.0,NNW,17.3,-,0.00,,Overcast,330,2012-11-10 23:23:00
4:53 PM,14.0,10.9,88,29.97,5.0,NW,16.1,-,0.00,Snow,Light Snow,320,2012-11-10 23:53:00
5:53 PM,12.9,9.0,84,30.01,8.0,NNW,16.1,-,0.00,Snow,Light Snow,330,2012-11-11 00:53:00
6:53 PM,12.0,9.0,88,30.04,6.0,NW,13.8,-,0.00,Snow,Light Snow,320,2012-11-11 01:53:00
7:53 PM,10.9,8.1,88,30.08,5.0,NNW,9.2,-,0.00,Snow,Light Snow,330,2012-11-11 02:53:00
8:53 PM,8.6,6.8,92,29.89,10.0,NW,9.2,-,N/A,,Overcast,310,2012-11-11 03:53:00
9:53 PM,3.0,1.0,91,30.09,10.0,West,8.1,-,N/A,,Mostly Cloudy,270,2012-11-11 04:53:00
10:53 PM,3.0,1.0,91,30.11,10.0,West,8.1,-,N/A,,Mostly Cloudy,270,2012-11-11 05:53:00
11:53 PM,3.9,1.9,91,30.11,10.0,West,5.8,-,N/A,,Overcast,280,2012-11-11 06:53:00